createdAt,value
2019-03-21T00:00:33.272Z,102177.39
2019-03-21T00:01:12.823Z,102172.14
2019-03-21T00:01:52.420Z,102175.09
2019-03-21T00:02:23.706Z,102166.39
2019-03-21T00:02:54.951Z,102163.72
2019-03-21T00:03:26.215Z,102164.59
2019-03-21T00:04:04.824Z,102172.00
2019-03-21T00:04:36.189Z,102170.61
2019-03-21T00:05:10.366Z,102170.61
2019-03-21T00:05:41.588Z,102165.27
2019-03-21T00:06:14.346Z,102168.34
2019-03-21T00:06:45.558Z,102162.19
2019-03-21T00:07:16.720Z,102160.38
2019-03-21T00:07:47.928Z,102161.69
2019-03-21T00:08:19.077Z,102161.61
2019-03-21T00:08:50.290Z,102158.08
2019-03-21T00:09:21.460Z,102162.02
2019-03-21T00:10:15.948Z,102161.11
2019-03-21T00:11:30.520Z,102154.99
2019-03-21T00:12:06.830Z,102146.62
2019-03-21T00:12:37.980Z,102149.25
2019-03-21T00:13:09.216Z,102152.69
2019-03-21T00:13:41.482Z,102152.20
2019-03-21T00:14:18.341Z,102143.42
2019-03-21T00:14:57.997Z,102148.63
2019-03-21T00:15:37.658Z,102148.63
2019-03-21T00:16:13.585Z,102154.69
2019-03-21T00:16:45.053Z,102161.66
2019-03-21T00:17:24.945Z,102164.20
2019-03-21T00:18:00.279Z,102144.56
2019-03-21T00:18:31.501Z,102156.19
2019-03-21T00:19:02.732Z,102159.80
2019-03-21T00:19:33.965Z,102158.89
2019-03-21T00:20:14.925Z,102165.87
2019-03-21T00:20:46.112Z,102165.87
2019-03-21T00:21:17.337Z,102168.90
2019-03-21T00:21:48.575Z,102170.30
2019-03-21T00:22:19.807Z,102167.67
2019-03-21T00:22:51.057Z,102172.97
2019-03-21T00:23:22.249Z,102168.13
2019-03-21T00:23:53.537Z,102171.66
2019-03-21T00:24:24.787Z,102172.56
2019-03-21T00:24:55.992Z,102180.03
2019-03-21T00:25:27.170Z,102180.03
2019-03-21T00:25:58.343Z,102175.19
2019-03-21T00:26:31.385Z,102178.72
2019-03-21T00:27:02.822Z,102175.69
2019-03-21T00:27:34.027Z,102171.75
2019-03-21T00:28:06.213Z,102184.45
2019-03-21T00:28:37.382Z,102180.93
2019-03-21T00:29:08.673Z,102180.44
2019-03-21T00:29:39.860Z,102181.34
2019-03-21T00:30:15.351Z,102182.66
2019-03-21T00:30:46.534Z,102191.92
2019-03-21T00:31:17.726Z,102183.97
2019-03-21T00:31:48.960Z,102179.53
2019-03-21T00:32:20.196Z,102186.95
2019-03-21T00:32:53.128Z,102197.91
2019-03-21T00:33:24.354Z,102183.88
2019-03-21T00:33:55.658Z,102183.88
2019-03-21T00:34:28.357Z,102185.14
2019-03-21T00:34:59.614Z,102191.75
2019-03-21T00:35:30.836Z,102186.95
2019-03-21T00:36:02.012Z,102192.66
2019-03-21T00:36:34.253Z,102191.75
2019-03-21T00:37:05.514Z,102190.94
2019-03-21T00:37:36.832Z,102191.34
2019-03-21T00:38:08.058Z,102193.56
2019-03-21T00:38:39.401Z,102191.34
2019-03-21T00:39:10.732Z,102192.25
2019-03-21T00:39:41.981Z,102190.03
2019-03-21T00:40:26.741Z,102187.00
2019-03-21T00:40:58.313Z,102182.56
2019-03-21T00:41:29.474Z,102187.81
2019-03-21T00:42:00.699Z,102184.32
2019-03-21T00:42:31.846Z,102185.63
2019-03-21T00:43:11.299Z,102188.72
2019-03-21T00:43:42.447Z,102192.25
2019-03-21T00:44:18.142Z,102179.94
2019-03-21T00:44:46.811Z,102181.70
2019-03-21T00:45:18.041Z,102179.07
2019-03-21T00:45:49.223Z,102177.32
2019-03-21T00:46:20.452Z,102178.63
2019-03-21T00:46:51.601Z,102174.23
2019-03-21T00:47:22.815Z,102176.00
2019-03-21T00:47:53.979Z,102180.44
2019-03-21T00:48:25.590Z,102179.53
2019-03-21T00:48:56.764Z,102168.48
2019-03-21T00:49:28.329Z,102172.56
2019-03-21T00:49:59.496Z,102182.25
2019-03-21T00:50:30.804Z,102166.91
2019-03-21T00:51:02.038Z,102167.81
2019-03-21T00:51:33.373Z,102171.75
2019-03-21T00:52:04.616Z,102178.80
2019-03-21T00:52:35.946Z,102176.17
2019-03-21T00:53:07.185Z,102169.20
2019-03-21T00:53:38.405Z,102170.44
2019-03-21T00:54:09.609Z,102178.80
2019-03-21T00:54:40.745Z,102170.84
2019-03-21T00:55:12.348Z,102172.56
2019-03-21T00:55:51.352Z,102172.97
2019-03-21T00:56:23.922Z,102172.97
2019-03-21T00:56:55.318Z,102177.00
2019-03-21T00:57:26.509Z,102177.00
2019-03-21T00:57:58.713Z,102181.75
2019-03-21T00:58:30.061Z,102173.88
2019-03-21T00:59:01.220Z,102177.90
2019-03-21T00:59:32.421Z,102174.78
2019-03-21T01:00:24.413Z,102177.00
2019-03-21T01:01:00.117Z,102184.45
2019-03-21T01:01:31.339Z,102147.95
2019-03-21T01:02:02.586Z,102170.75
2019-03-21T01:02:33.761Z,102169.89
2019-03-21T01:03:05.621Z,102172.07
2019-03-21T01:03:37.304Z,102178.63
2019-03-21T01:04:08.503Z,102176.86
2019-03-21T01:04:39.701Z,102176.91
2019-03-21T01:05:11.019Z,102176.91
2019-03-21T01:05:42.709Z,102172.56
2019-03-21T01:06:13.965Z,102175.19
2019-03-21T01:06:45.397Z,102180.84
2019-03-21T01:07:16.663Z,102177.81
2019-03-21T01:07:48.240Z,102172.16
2019-03-21T01:08:19.446Z,102176.50
2019-03-21T01:08:50.655Z,102176.09
2019-03-21T01:09:21.930Z,102179.63
2019-03-21T01:09:53.091Z,102179.63
2019-03-21T01:10:29.570Z,102181.34
2019-03-21T01:11:00.735Z,102176.09
2019-03-21T01:11:31.952Z,102175.69
2019-03-21T01:12:03.209Z,102185.28
2019-03-21T01:12:34.411Z,102175.19
2019-03-21T01:13:05.569Z,102175.14
2019-03-21T01:13:39.075Z,102175.59
2019-03-21T01:14:10.243Z,102181.25
2019-03-21T01:14:41.439Z,102169.89
2019-03-21T01:15:12.607Z,102171.66
2019-03-21T01:15:43.799Z,102179.94
2019-03-21T01:16:14.980Z,102174.70
2019-03-21T01:16:47.205Z,102176.86
2019-03-21T01:17:18.353Z,102177.32
2019-03-21T01:17:49.577Z,102173.83
2019-03-21T01:18:20.749Z,102175.14
2019-03-21T01:18:52.948Z,102178.58
2019-03-21T01:19:24.110Z,102173.38
2019-03-21T01:19:55.560Z,102167.31
2019-03-21T01:20:26.814Z,102166.09
2019-03-21T01:20:58.027Z,102182.33
2019-03-21T01:21:29.200Z,102169.20
2019-03-21T01:22:00.388Z,102172.56
2019-03-21T01:22:31.564Z,102167.81
2019-03-21T01:23:02.752Z,102166.91
2019-03-21T01:23:33.954Z,102170.03
2019-03-21T01:24:06.170Z,102170.52
2019-03-21T01:24:37.348Z,102166.91
2019-03-21T01:25:26.720Z,102156.73
2019-03-21T01:26:05.531Z,102156.73
2019-03-21T01:26:36.759Z,102166.82
2019-03-21T01:27:07.947Z,102171.61
2019-03-21T01:27:39.118Z,102179.07
2019-03-21T01:28:10.305Z,102161.11
2019-03-21T01:28:41.471Z,102167.27
2019-03-21T01:29:12.655Z,102172.52
2019-03-21T01:29:43.849Z,102162.42
2019-03-21T01:30:18.127Z,102155.86
2019-03-21T01:30:49.311Z,102157.99
2019-03-21T01:31:20.487Z,102163.24
2019-03-21T01:31:54.599Z,102160.13
2019-03-21T01:32:25.811Z,102169.39
2019-03-21T01:32:57.054Z,102164.55
2019-03-21T01:33:28.506Z,102164.14
2019-03-21T01:33:59.733Z,102162.42
2019-03-21T01:34:30.954Z,102157.17
2019-03-21T01:35:03.896Z,102160.26
2019-03-21T01:35:36.631Z,102169.45
2019-03-21T01:36:07.880Z,102165.09
2019-03-21T01:36:39.096Z,102157.23
2019-03-21T01:37:10.245Z,102166.82
2019-03-21T01:37:41.463Z,102166.82
2019-03-21T01:38:12.607Z,102166.82
2019-03-21T01:38:43.821Z,102167.67
2019-03-21T01:39:14.968Z,102165.95
2019-03-21T01:39:46.176Z,102159.30
2019-03-21T01:40:28.955Z,102161.11
2019-03-21T01:41:13.637Z,102165.45
2019-03-21T01:41:44.833Z,102165.05
2019-03-21T01:42:16.074Z,102164.64
2019-03-21T01:42:47.323Z,102168.58
2019-03-21T01:43:19.248Z,102172.52
2019-03-21T01:43:50.491Z,102165.09
2019-03-21T01:44:22.828Z,102133.56
2019-03-21T01:44:54.050Z,102168.58
2019-03-21T01:45:25.628Z,102171.61
2019-03-21T01:45:57.164Z,102154.05
2019-03-21T01:46:28.481Z,102154.05
2019-03-21T01:46:59.701Z,102159.39
2019-03-21T01:47:30.868Z,102161.57
2019-03-21T01:48:02.077Z,102152.38
2019-03-21T01:48:33.232Z,102134.42
2019-03-21T01:49:04.451Z,102165.59
2019-03-21T01:49:35.599Z,102159.44
2019-03-21T01:50:12.007Z,102169.13
2019-03-21T01:50:43.181Z,102149.84
2019-03-21T01:51:14.399Z,102153.05
2019-03-21T01:51:46.044Z,102153.05
2019-03-21T01:52:17.355Z,102132.02
2019-03-21T01:52:48.525Z,102152.69
2019-03-21T01:53:19.743Z,102152.69
2019-03-21T01:53:53.306Z,102142.33
2019-03-21T01:54:24.513Z,102152.28
2019-03-21T01:54:55.687Z,102155.81
2019-03-21T01:55:26.895Z,102158.76
2019-03-21T01:55:58.280Z,102139.53
2019-03-21T01:56:30.161Z,102143.38
2019-03-21T01:57:01.339Z,102114.16
2019-03-21T01:57:32.488Z,102147.31
2019-03-21T01:58:03.995Z,102150.89
2019-03-21T01:58:35.156Z,102149.58
2019-03-21T01:59:06.402Z,102146.49
2019-03-21T01:59:37.560Z,102146.05
2019-03-21T02:00:18.200Z,102147.31
2019-03-21T02:00:54.888Z,102146.00
2019-03-21T02:01:26.080Z,102147.80
2019-03-21T02:01:57.260Z,102145.59
2019-03-21T02:02:28.564Z,102145.59
2019-03-21T02:03:00.745Z,102150.42
2019-03-21T02:03:31.951Z,102144.27
2019-03-21T02:04:03.112Z,102140.75
2019-03-21T02:04:34.304Z,102141.16
2019-03-21T02:05:09.164Z,102142.06
2019-03-21T02:05:40.360Z,102147.31
2019-03-21T02:06:11.524Z,102146.00
2019-03-21T02:06:42.720Z,102138.94
2019-03-21T02:07:13.904Z,102153.87
2019-03-21T02:07:45.100Z,102142.06
2019-03-21T02:08:16.303Z,102141.56
2019-03-21T02:08:47.478Z,102134.87
2019-03-21T02:09:18.660Z,102141.65
2019-03-21T02:09:49.845Z,102141.70
2019-03-21T02:10:21.025Z,102145.09
2019-03-21T02:10:52.205Z,102138.94
2019-03-21T02:11:23.400Z,102141.97
2019-03-21T02:11:54.891Z,102112.61
2019-03-21T02:12:26.077Z,102141.56
2019-03-21T02:12:57.256Z,102143.28
2019-03-21T02:13:28.439Z,102140.25
2019-03-21T02:13:59.619Z,102135.82
2019-03-21T02:14:30.805Z,102140.58
2019-03-21T02:15:02.049Z,102117.86
2019-03-21T02:15:33.301Z,102117.86
2019-03-21T02:16:04.475Z,102137.63
2019-03-21T02:16:35.662Z,102136.72
2019-03-21T02:17:06.882Z,102139.76
2019-03-21T02:17:38.051Z,102135.41
2019-03-21T02:18:10.223Z,102134.09
2019-03-21T02:18:41.504Z,102136.31
2019-03-21T02:19:12.698Z,102139.92
2019-03-21T02:19:43.898Z,102138.13
2019-03-21T02:20:17.484Z,102135.91
2019-03-21T02:20:48.651Z,102113.07
2019-03-21T02:21:19.845Z,102139.34
2019-03-21T02:21:51.079Z,102123.66
2019-03-21T02:22:23.289Z,102130.08
2019-03-21T02:22:54.504Z,102139.70
2019-03-21T02:23:25.771Z,102112.53
2019-03-21T02:23:56.934Z,102134.02
2019-03-21T02:24:28.484Z,102137.08
2019-03-21T02:24:59.660Z,102135.77
2019-03-21T02:25:45.238Z,102141.84
2019-03-21T02:26:16.431Z,102134.38
2019-03-21T02:26:47.627Z,102142.25
2019-03-21T02:27:18.832Z,102140.03
2019-03-21T02:27:50.011Z,102140.84
2019-03-21T02:28:21.162Z,102143.47
2019-03-21T02:28:52.408Z,102120.48
2019-03-21T02:29:23.567Z,102135.69
2019-03-21T02:29:54.791Z,102104.30
2019-03-21T02:30:44.536Z,102130.44
2019-03-21T02:31:15.748Z,102139.70
2019-03-21T02:31:47.012Z,102134.87
2019-03-21T02:32:18.237Z,102134.87
2019-03-21T02:32:53.662Z,102132.24
2019-03-21T02:33:33.075Z,102131.34
2019-03-21T02:34:04.706Z,102126.09
2019-03-21T02:34:35.953Z,102108.18
2019-03-21T02:35:07.198Z,102108.18
2019-03-21T02:35:38.518Z,102132.70
2019-03-21T02:36:12.242Z,102134.87
2019-03-21T02:36:43.803Z,102136.23
2019-03-21T02:37:15.043Z,102129.20
2019-03-21T02:37:46.254Z,102142.74
2019-03-21T02:38:17.394Z,102142.74
2019-03-21T02:38:48.613Z,102131.34
2019-03-21T02:39:19.775Z,102129.13
2019-03-21T02:39:59.581Z,102127.81
2019-03-21T02:40:24.969Z,102133.06
2019-03-21T02:41:07.268Z,102124.69
2019-03-21T02:41:38.471Z,102124.69
2019-03-21T02:42:10.679Z,102130.77
2019-03-21T02:42:41.905Z,102106.24
2019-03-21T02:43:14.134Z,102106.24
2019-03-21T02:43:45.384Z,102130.30
2019-03-21T02:44:16.613Z,102139.08
2019-03-21T02:44:47.891Z,102127.67
2019-03-21T02:45:19.414Z,102129.31
2019-03-21T02:45:50.817Z,102129.31
2019-03-21T02:46:22.044Z,102102.81
2019-03-21T02:46:53.275Z,102112.22
2019-03-21T02:47:24.907Z,102133.25
2019-03-21T02:47:56.121Z,102130.63
2019-03-21T02:48:27.270Z,102132.34
2019-03-21T02:48:58.482Z,102135.88
2019-03-21T02:49:29.649Z,102134.56
2019-03-21T02:50:00.920Z,102132.84
2019-03-21T02:50:39.743Z,102135.59
2019-03-21T02:51:10.958Z,102139.08
2019-03-21T02:51:42.119Z,102136.01
2019-03-21T02:52:13.330Z,102133.88
2019-03-21T02:52:44.612Z,102136.50
2019-03-21T02:53:15.835Z,102133.88
2019-03-21T02:53:46.980Z,102135.19
2019-03-21T02:54:18.165Z,102137.00
2019-03-21T02:54:49.343Z,102136.18
2019-03-21T02:55:21.314Z,102130.30
2019-03-21T02:55:52.607Z,102133.55
2019-03-21T02:56:25.097Z,102133.55
2019-03-21T02:56:56.306Z,102133.15
2019-03-21T02:57:27.876Z,102133.97
2019-03-21T02:57:59.064Z,102133.06
2019-03-21T02:58:31.070Z,102130.44
2019-03-21T02:59:02.274Z,102130.93
2019-03-21T02:59:33.468Z,102130.93
2019-03-21T03:00:15.846Z,102127.45
2019-03-21T03:00:47.044Z,102130.08
2019-03-21T03:01:18.220Z,102131.47
2019-03-21T03:01:49.419Z,102128.03
2019-03-21T03:02:20.588Z,102129.27
2019-03-21T03:02:54.810Z,102122.29
2019-03-21T03:03:26.009Z,102128.12
2019-03-21T03:03:57.193Z,102127.21
2019-03-21T03:04:28.383Z,102132.52
2019-03-21T03:04:59.578Z,102128.53
2019-03-21T03:05:32.449Z,102133.37
2019-03-21T03:06:03.637Z,102135.55
2019-03-21T03:06:34.831Z,102135.09
2019-03-21T03:07:06.015Z,102136.86
2019-03-21T03:07:37.245Z,102132.92
2019-03-21T03:08:08.753Z,102132.52
2019-03-21T03:08:39.925Z,102139.92
2019-03-21T03:09:11.146Z,102135.99
2019-03-21T03:09:42.308Z,102140.39
2019-03-21T03:10:21.568Z,102139.48
2019-03-21T03:10:59.413Z,102130.84
2019-03-21T03:11:30.694Z,102140.39
2019-03-21T03:12:01.905Z,102143.91
2019-03-21T03:12:33.110Z,102111.70
2019-03-21T03:13:04.315Z,102141.70
2019-03-21T03:13:36.284Z,102137.72
2019-03-21T03:14:07.457Z,102140.75
2019-03-21T03:14:38.711Z,102139.44
2019-03-21T03:15:22.587Z,102139.44
2019-03-21T03:15:48.376Z,102137.22
2019-03-21T03:16:21.850Z,102144.73
2019-03-21T03:16:53.148Z,102138.17
2019-03-21T03:17:24.304Z,102141.70
2019-03-21T03:17:55.514Z,102139.84
2019-03-21T03:18:26.720Z,102139.76
2019-03-21T03:18:57.974Z,102142.47
2019-03-21T03:19:29.143Z,102138.94
2019-03-21T03:20:00.638Z,102143.78
2019-03-21T03:20:31.909Z,102146.00
2019-03-21T03:21:03.119Z,102142.38
2019-03-21T03:21:34.307Z,102142.79
2019-03-21T03:22:05.492Z,102149.44
2019-03-21T03:22:36.669Z,102150.75
2019-03-21T03:23:07.851Z,102149.44
2019-03-21T03:23:39.033Z,102157.23
2019-03-21T03:24:10.282Z,102155.01
2019-03-21T03:24:41.474Z,102151.98
2019-03-21T03:25:19.356Z,102149.84
2019-03-21T03:25:51.412Z,102157.72
2019-03-21T03:26:22.804Z,102160.43
2019-03-21T03:26:53.975Z,102156.13
2019-03-21T03:27:25.327Z,102156.98
2019-03-21T03:28:04.921Z,102156.49
2019-03-21T03:28:43.245Z,102155.19
2019-03-21T03:29:14.385Z,102154.69
2019-03-21T03:29:45.595Z,102152.88
2019-03-21T03:30:20.749Z,102135.82
2019-03-21T03:30:57.031Z,102154.28
2019-03-21T03:31:28.329Z,102156.13
2019-03-21T03:31:59.545Z,102150.97
2019-03-21T03:32:32.013Z,102152.69
2019-03-21T03:33:03.257Z,102152.37
2019-03-21T03:33:34.471Z,102153.73
2019-03-21T03:34:05.843Z,102151.52
2019-03-21T03:34:38.164Z,102154.14
2019-03-21T03:35:11.705Z,102152.83
2019-03-21T03:35:43.124Z,102150.20
2019-03-21T03:36:15.161Z,102160.30
2019-03-21T03:36:46.413Z,102154.55
2019-03-21T03:37:17.692Z,102158.03
2019-03-21T03:37:48.976Z,102155.31
2019-03-21T03:38:20.221Z,102155.31
2019-03-21T03:38:51.445Z,102152.69
2019-03-21T03:39:22.609Z,102159.25
2019-03-21T03:39:53.831Z,102160.16
2019-03-21T03:40:52.864Z,102164.59
2019-03-21T03:41:25.391Z,102157.17
2019-03-21T03:41:56.553Z,102158.93
2019-03-21T03:42:27.890Z,102162.87
2019-03-21T03:42:59.055Z,102161.55
2019-03-21T03:43:30.404Z,102161.06
2019-03-21T03:44:01.651Z,102168.53
2019-03-21T03:44:33.896Z,102161.61
2019-03-21T03:45:36.547Z,102165.05
2019-03-21T03:45:58.479Z,102165.91
2019-03-21T03:46:29.708Z,102163.28
2019-03-21T03:47:00.937Z,102162.37
2019-03-21T03:47:32.169Z,102166.72
2019-03-21T03:48:04.051Z,102173.28
2019-03-21T03:48:35.352Z,102170.16
2019-03-21T03:49:06.581Z,102161.92
2019-03-21T03:49:37.809Z,102167.41
2019-03-21T03:50:10.021Z,102169.61
2019-03-21T03:50:41.202Z,102173.55
2019-03-21T03:51:12.429Z,102168.80
2019-03-21T03:51:43.557Z,102172.73
2019-03-21T03:52:14.778Z,102169.20
2019-03-21T03:52:45.921Z,102169.20
2019-03-21T03:53:17.422Z,102170.11
2019-03-21T03:53:48.629Z,102166.17
2019-03-21T03:54:19.938Z,102165.73
2019-03-21T03:54:51.110Z,102164.02
2019-03-21T03:55:22.389Z,102142.66
2019-03-21T03:55:53.571Z,102145.05
2019-03-21T03:56:24.847Z,102153.23
2019-03-21T03:56:56.012Z,102161.47
2019-03-21T03:57:28.246Z,102162.78
2019-03-21T03:58:24.036Z,102164.02
2019-03-21T03:59:00.945Z,102163.19
2019-03-21T03:59:32.123Z,102142.16
2019-03-21T04:00:08.991Z,102166.31
2019-03-21T04:00:40.169Z,102160.16
2019-03-21T04:01:11.354Z,102160.02
2019-03-21T04:01:42.539Z,102167.89
2019-03-21T04:02:13.727Z,102166.58
2019-03-21T04:02:46.934Z,102169.61
2019-03-21T04:03:18.220Z,102168.71
2019-03-21T04:03:49.387Z,102166.41
2019-03-21T04:04:20.583Z,102166.36
2019-03-21T04:04:51.750Z,102167.17
2019-03-21T04:05:23.252Z,102165.78
2019-03-21T04:05:54.899Z,102173.24
2019-03-21T04:06:26.085Z,102155.69
2019-03-21T04:06:57.274Z,102155.69
2019-03-21T04:07:28.463Z,102170.48
2019-03-21T04:07:59.680Z,102170.48
2019-03-21T04:08:30.868Z,102153.38
2019-03-21T04:09:04.262Z,102167.36
2019-03-21T04:09:35.450Z,102159.13
2019-03-21T04:10:31.885Z,102165.64
2019-03-21T04:11:03.186Z,102171.44
2019-03-21T04:11:34.374Z,102171.44
2019-03-21T04:12:05.578Z,102173.24
2019-03-21T04:12:36.755Z,102177.27
2019-03-21T04:13:07.933Z,102177.32
2019-03-21T04:13:39.129Z,102178.22
2019-03-21T04:14:10.401Z,102169.53
2019-03-21T04:14:41.629Z,102179.13
2019-03-21T04:15:13.975Z,102181.42
2019-03-21T04:15:52.416Z,102177.41
2019-03-21T04:16:18.257Z,102173.83
2019-03-21T04:16:49.461Z,102168.98
2019-03-21T04:17:20.625Z,102170.20
2019-03-21T04:17:51.867Z,102167.50
2019-03-21T04:18:24.230Z,102168.41
2019-03-21T04:18:55.481Z,102175.38
2019-03-21T04:19:26.694Z,102173.59
2019-03-21T04:19:57.879Z,102173.19
2019-03-21T04:20:38.914Z,102176.95
2019-03-21T04:21:12.786Z,102176.95
2019-03-21T04:21:43.992Z,102180.84
2019-03-21T04:22:15.189Z,102182.15
2019-03-21T04:22:46.372Z,102181.25
2019-03-21T04:23:23.141Z,102183.05
2019-03-21T04:23:54.617Z,102184.69
2019-03-21T04:24:26.159Z,102185.09
2019-03-21T04:24:57.338Z,102186.91
2019-03-21T04:25:36.650Z,102188.22
2019-03-21T04:26:28.167Z,102186.00
2019-03-21T04:26:59.356Z,102189.53
2019-03-21T04:27:30.642Z,102193.78
2019-03-21T04:28:01.825Z,102193.78
2019-03-21T04:28:33.607Z,102192.01
2019-03-21T04:29:04.772Z,102195.50
2019-03-21T04:29:35.968Z,102194.19
2019-03-21T04:30:16.109Z,102200.34
2019-03-21T04:30:47.305Z,102196.91
2019-03-21T04:31:18.498Z,102189.38
2019-03-21T04:31:49.675Z,102195.95
2019-03-21T04:32:21.005Z,102190.20
2019-03-21T04:32:52.232Z,102192.83
2019-03-21T04:33:23.535Z,102201.11
2019-03-21T04:33:59.677Z,102200.61
2019-03-21T04:34:30.870Z,102195.77
2019-03-21T04:35:02.147Z,102194.95
2019-03-21T04:35:33.479Z,102201.52
2019-03-21T04:36:04.692Z,102198.89
2019-03-21T04:36:35.928Z,102203.64
2019-03-21T04:37:07.162Z,102202.83
2019-03-21T04:37:38.398Z,102202.73
2019-03-21T04:38:09.757Z,102204.05
2019-03-21T04:38:41.361Z,102206.67
2019-03-21T04:39:12.595Z,102202.69
2019-03-21T04:39:43.825Z,102201.78
2019-03-21T04:40:17.887Z,102212.36
2019-03-21T04:40:49.092Z,102205.72
2019-03-21T04:41:20.247Z,102206.62
2019-03-21T04:41:51.455Z,102204.81
2019-03-21T04:42:22.613Z,102210.06
2019-03-21T04:42:53.826Z,102206.21
2019-03-21T04:43:24.979Z,102207.93
2019-03-21T04:43:56.175Z,102208.84
2019-03-21T04:44:27.344Z,102202.19
2019-03-21T04:44:58.610Z,102205.63
2019-03-21T04:45:29.828Z,102211.78
2019-03-21T04:46:03.683Z,102206.03
2019-03-21T04:46:34.082Z,102217.43
2019-03-21T04:47:05.284Z,102215.22
2019-03-21T04:47:36.444Z,102213.50
2019-03-21T04:48:07.675Z,102214.41
2019-03-21T04:48:38.828Z,102213.50
2019-03-21T04:49:10.036Z,102214.75
2019-03-21T04:49:41.236Z,102218.25
2019-03-21T04:50:19.878Z,102222.19
2019-03-21T04:50:51.044Z,102216.88
2019-03-21T04:51:22.250Z,102216.06
2019-03-21T04:51:53.406Z,102222.68
2019-03-21T04:52:24.731Z,102217.43
2019-03-21T04:52:55.924Z,102216.62
2019-03-21T04:53:27.126Z,102220.55
2019-03-21T04:53:58.279Z,102222.27
2019-03-21T04:54:29.498Z,102221.86
2019-03-21T04:55:00.686Z,102223.09
2019-03-21T04:55:31.875Z,102217.84
2019-03-21T04:56:03.092Z,102222.19
2019-03-21T04:56:34.321Z,102219.56
2019-03-21T04:57:06.535Z,102223.84
2019-03-21T04:57:37.693Z,102226.06
2019-03-21T04:58:08.900Z,102224.34
2019-03-21T04:58:40.096Z,102225.16
2019-03-21T04:59:11.311Z,102219.83
2019-03-21T04:59:42.471Z,102220.17
2019-03-21T05:00:24.862Z,102228.45
2019-03-21T05:00:57.041Z,102228.86
2019-03-21T05:01:28.371Z,102225.69
2019-03-21T05:01:59.542Z,102231.39
2019-03-21T05:02:30.768Z,102231.75
2019-03-21T05:03:06.943Z,102231.34
2019-03-21T05:03:38.185Z,102230.72
2019-03-21T05:04:09.332Z,102224.52
2019-03-21T05:04:40.529Z,102232.88
2019-03-21T05:05:12.899Z,102239.84
2019-03-21T05:05:44.079Z,102236.73
2019-03-21T05:06:15.260Z,102234.19
2019-03-21T05:06:46.436Z,102237.13
2019-03-21T05:07:17.610Z,102237.13
2019-03-21T05:07:48.802Z,102235.82
2019-03-21T05:08:19.984Z,102245.09
2019-03-21T05:08:51.956Z,102243.37
2019-03-21T05:09:23.174Z,102240.75
2019-03-21T05:09:54.382Z,102242.06
2019-03-21T05:10:25.566Z,102241.56
2019-03-21T05:10:56.736Z,102241.47
2019-03-21T05:11:28.153Z,102245.81
2019-03-21T05:11:59.334Z,102244.45
2019-03-21T05:12:30.539Z,102239.61
2019-03-21T05:13:01.734Z,102243.45
2019-03-21T05:13:32.922Z,102239.52
2019-03-21T05:14:04.128Z,102235.50
2019-03-21T05:14:35.330Z,102243.86
2019-03-21T05:15:11.249Z,102245.11
2019-03-21T05:15:45.823Z,102242.05
2019-03-21T05:16:17.034Z,102242.05
2019-03-21T05:16:48.199Z,102241.64
2019-03-21T05:17:19.417Z,102240.42
2019-03-21T05:17:55.176Z,102248.20
2019-03-21T05:18:34.734Z,102237.30
2019-03-21T05:19:05.895Z,102244.67
2019-03-21T05:19:37.104Z,102254.61
2019-03-21T05:20:15.493Z,102241.00
2019-03-21T05:20:47.682Z,102244.53
2019-03-21T05:21:21.839Z,102249.86
2019-03-21T05:21:53.043Z,102245.02
2019-03-21T05:22:24.215Z,102254.20
2019-03-21T05:22:56.852Z,102251.98
2019-03-21T05:23:28.083Z,102250.77
2019-03-21T05:23:59.287Z,102248.96
2019-03-21T05:24:30.447Z,102259.95
2019-03-21T05:25:01.658Z,102253.39
2019-03-21T05:25:32.844Z,102237.73
2019-03-21T05:26:04.388Z,102252.54
2019-03-21T05:26:35.618Z,102255.66
2019-03-21T05:27:06.854Z,102252.08
2019-03-21T05:27:38.096Z,102249.92
2019-03-21T05:28:09.334Z,102251.67
2019-03-21T05:28:40.565Z,102248.61
2019-03-21T05:29:11.786Z,102247.30
2019-03-21T05:29:43.018Z,102253.45
2019-03-21T05:30:28.653Z,102242.57
2019-03-21T05:31:10.732Z,102250.77
2019-03-21T05:31:41.897Z,102249.05
2019-03-21T05:32:13.130Z,102249.92
2019-03-21T05:32:44.296Z,102249.92
2019-03-21T05:33:15.518Z,102250.41
2019-03-21T05:33:46.680Z,102252.63
2019-03-21T05:34:17.904Z,102229.81
2019-03-21T05:34:49.058Z,102249.92
2019-03-21T05:35:20.285Z,102250.77
2019-03-21T05:35:51.963Z,102253.39
2019-03-21T05:36:23.239Z,102246.83
2019-03-21T05:36:54.943Z,102249.52
2019-03-21T05:37:26.618Z,102252.14
2019-03-21T05:37:58.101Z,102244.67
2019-03-21T05:38:31.628Z,102244.67
2019-03-21T05:39:07.355Z,102244.67
2019-03-21T05:39:38.586Z,102247.73
2019-03-21T05:40:15.746Z,102245.93
2019-03-21T05:40:47.952Z,102243.31
2019-03-21T05:41:19.128Z,102250.77
2019-03-21T05:41:50.365Z,102248.14
2019-03-21T05:42:21.598Z,102252.39
2019-03-21T05:43:07.641Z,102249.27
2019-03-21T05:43:47.225Z,102255.37
2019-03-21T05:44:35.752Z,102252.66
2019-03-21T05:45:12.670Z,102253.06
2019-03-21T05:45:43.945Z,102255.69
2019-03-21T05:46:26.105Z,102253.87
2019-03-21T05:46:50.919Z,102254.38
2019-03-21T05:47:22.221Z,102253.56
2019-03-21T05:47:53.411Z,102255.83
2019-03-21T05:48:24.825Z,102256.83
2019-03-21T05:48:56.999Z,102253.39
2019-03-21T05:49:28.236Z,102257.79
2019-03-21T05:49:59.415Z,102256.02
2019-03-21T05:50:30.620Z,102259.54
2019-03-21T05:51:01.803Z,102256.97
2019-03-21T05:51:32.965Z,102257.88
2019-03-21T05:52:05.079Z,102253.13
2019-03-21T05:52:36.341Z,102252.38
2019-03-21T05:53:07.571Z,102261.30
2019-03-21T05:53:38.724Z,102261.91
2019-03-21T05:54:09.936Z,102261.02
2019-03-21T05:54:41.088Z,102259.30
2019-03-21T05:55:12.280Z,102255.64
2019-03-21T05:55:43.481Z,102235.50
2019-03-21T05:56:14.673Z,102235.50
2019-03-21T05:56:45.806Z,102257.98
2019-03-21T05:57:17.010Z,102258.94
2019-03-21T05:57:48.197Z,102262.06
2019-03-21T05:58:19.422Z,102250.61
2019-03-21T05:58:50.620Z,102264.83
2019-03-21T05:59:21.830Z,102261.89
2019-03-21T05:59:52.997Z,102255.33
2019-03-21T06:00:31.394Z,102264.11
2019-03-21T06:01:12.167Z,102257.14
2019-03-21T06:01:43.333Z,102265.83
2019-03-21T06:02:14.517Z,102259.67
2019-03-21T06:02:45.679Z,102253.69
2019-03-21T06:03:30.773Z,102259.81
2019-03-21T06:04:01.959Z,102262.84
2019-03-21T06:04:35.043Z,102263.84
2019-03-21T06:05:06.195Z,102264.25
2019-03-21T06:05:41.166Z,102267.46
2019-03-21T06:06:18.129Z,102268.91
2019-03-21T06:07:13.033Z,102269.41
2019-03-21T06:07:52.495Z,102270.37
2019-03-21T06:08:30.840Z,102277.84
2019-03-21T06:09:02.125Z,102277.02
2019-03-21T06:09:33.714Z,102275.36
2019-03-21T06:10:13.181Z,102271.92
2019-03-21T06:10:45.772Z,102273.23
2019-03-21T06:11:16.969Z,102278.56
2019-03-21T06:11:59.165Z,102271.16